Terminal Aerodrome Forecast
Issued by NWS

Home | Current Version | Previous Version | Graphics & Text | Print | Product List | Glossary On
Versions: 1 2 3 4 5 6 7 8 9 10 11 12
794
FTUS43 KMPX 180520
TAFAXN
TAF
KAXN 180520Z 1806/1906 25012KT P6SM SKC
     FM180700 26011KT P6SM BKN150
     FM181100 25008KT P6SM SKC=

USA.gov is the U.S. government's official web portal to all federal, state and local government web resources and services.